createdAt,value
2019-01-04T00:02:00.635Z,6.23
2019-01-04T00:04:29.134Z,5.67
2019-01-04T00:06:57.758Z,5.60
2019-01-04T00:09:26.200Z,6.13
2019-01-04T00:11:54.633Z,5.63
2019-01-04T00:14:23.418Z,5.43
2019-01-04T00:16:51.851Z,5.43
2019-01-04T00:19:20.280Z,5.50
2019-01-04T00:21:49.082Z,5.70
2019-01-04T00:24:17.521Z,5.97
2019-01-04T00:26:45.953Z,6.00
2019-01-04T00:32:43.535Z,6.03
2019-01-04T00:35:12.183Z,6.30
2019-01-04T00:37:40.680Z,5.70
2019-01-04T00:40:10.439Z,6.13
2019-01-04T00:42:39.290Z,5.67
2019-01-04T00:45:08.817Z,6.10
2019-01-04T00:47:37.263Z,6.63
2019-01-04T00:50:08.496Z,6.17
2019-01-04T00:52:36.998Z,6.27
2019-01-04T00:58:40.442Z,5.20
2019-01-04T01:01:30.364Z,5.57
2019-01-04T01:07:58.827Z,5.63
2019-01-04T01:11:03.914Z,5.60
2019-01-04T01:13:41.050Z,6.00
2019-01-04T01:16:27.806Z,5.07
2019-01-04T01:22:31.680Z,5.43
2019-01-04T01:25:15.143Z,6.33
2019-01-04T01:28:13.464Z,5.57
2019-01-04T01:31:00.374Z,5.80
2019-01-04T01:33:47.179Z,5.90
2019-01-04T01:36:18.728Z,5.60
2019-01-04T01:43:06.415Z,5.60
2019-01-04T01:45:54.355Z,6.20
2019-01-04T01:48:24.641Z,5.60
2019-01-04T01:51:02.178Z,6.33
2019-01-04T01:53:42.797Z,5.57
2019-01-04T01:56:11.291Z,5.83
2019-01-04T01:58:39.727Z,5.80
2019-01-04T02:01:08.191Z,6.43
2019-01-04T02:03:36.698Z,6.00
2019-01-04T02:06:05.131Z,6.00
2019-01-04T02:08:33.702Z,6.30
2019-01-04T02:11:02.542Z,5.90
2019-01-04T02:13:31.042Z,7.07
2019-01-04T02:15:59.884Z,6.50
2019-01-04T02:18:28.312Z,6.50
2019-01-04T02:24:26.278Z,6.63
2019-01-04T02:26:55.375Z,7.37
2019-01-04T02:29:23.833Z,6.77
2019-01-04T02:31:52.268Z,6.63
2019-01-04T02:34:20.746Z,6.33
2019-01-04T02:36:49.187Z,7.57
2019-01-04T02:39:17.615Z,6.93
2019-01-04T02:41:46.075Z,6.83
2019-01-04T02:44:14.876Z,7.10
2019-01-04T02:46:43.303Z,6.67
2019-01-04T02:52:39.822Z,6.60
2019-01-04T02:55:08.459Z,7.30
2019-01-04T02:57:36.964Z,7.30
2019-01-04T03:00:08.131Z,7.77
2019-01-04T03:02:36.589Z,8.37
2019-01-04T03:05:05.958Z,8.47
2019-01-04T03:07:34.390Z,8.00
2019-01-04T03:10:03.583Z,7.67
2019-01-04T03:12:32.009Z,7.77
2019-01-04T03:15:00.438Z,7.77
2019-01-04T03:17:29.192Z,7.33
2019-01-04T03:19:57.628Z,7.50
2019-01-04T03:22:26.061Z,7.50
2019-01-04T03:24:54.795Z,6.90
2019-01-04T03:27:23.226Z,7.30
2019-01-04T03:29:51.658Z,7.07
2019-01-04T03:32:20.408Z,7.33
2019-01-04T03:34:48.839Z,7.53
2019-01-04T03:37:17.271Z,7.57
2019-01-04T03:39:45.868Z,6.77
2019-01-04T03:42:14.294Z,7.13
2019-01-04T03:44:42.727Z,7.30
2019-01-04T03:47:11.259Z,6.73
2019-01-04T03:49:39.688Z,8.00
2019-01-04T03:52:08.186Z,7.87
2019-01-04T03:54:37.083Z,8.67
2019-01-04T03:57:05.957Z,8.50
2019-01-04T03:59:34.719Z,7.87
2019-01-04T04:02:03.356Z,8.47
2019-01-04T04:04:31.793Z,8.43
2019-01-04T04:07:00.219Z,8.17
2019-01-04T04:09:29.018Z,8.60
2019-01-04T04:11:57.478Z,8.57
2019-01-04T04:14:25.978Z,9.13
2019-01-04T04:16:54.564Z,9.43
2019-01-04T04:19:23.000Z,8.77
2019-01-04T04:21:51.430Z,9.50
2019-01-04T04:24:20.136Z,9.00
2019-01-04T04:26:48.562Z,10.13
2019-01-04T04:29:16.995Z,9.67
2019-01-04T04:31:45.790Z,9.97
2019-01-04T04:34:14.235Z,9.83
2019-01-04T04:36:42.666Z,9.97
2019-01-04T04:39:11.664Z,10.07
2019-01-04T04:41:40.099Z,9.43
2019-01-04T04:44:08.529Z,9.30
2019-01-04T04:46:36.987Z,9.80
2019-01-04T04:49:05.754Z,10.17
2019-01-04T04:55:05.155Z,10.03
2019-01-04T04:57:33.891Z,10.27
2019-01-04T05:00:02.336Z,10.63
2019-01-04T05:02:30.771Z,10.63
2019-01-04T05:04:59.353Z,9.83
2019-01-04T05:07:29.333Z,11.33
2019-01-04T05:09:57.903Z,10.10
2019-01-04T05:12:26.642Z,10.27
2019-01-04T05:14:55.089Z,10.30
2019-01-04T05:17:23.525Z,10.93
2019-01-04T05:19:52.326Z,11.03
2019-01-04T05:26:01.801Z,10.63
2019-01-04T05:28:30.247Z,10.70
2019-01-04T05:30:58.678Z,11.00
2019-01-04T05:33:27.387Z,8.90
2019-01-04T05:35:55.818Z,9.27
2019-01-04T05:38:24.260Z,8.67
2019-01-04T05:44:21.430Z,9.60
2019-01-04T05:46:50.484Z,9.43
2019-01-04T05:49:18.955Z,8.87
2019-01-04T05:51:47.384Z,8.80
2019-01-04T05:57:44.475Z,9.43
2019-01-04T06:00:13.013Z,9.87
2019-01-04T06:02:41.737Z,9.00
2019-01-04T06:05:10.457Z,9.63
2019-01-04T06:07:39.243Z,9.07
2019-01-04T06:10:08.027Z,9.27
2019-01-04T06:12:36.462Z,9.80
2019-01-04T06:15:06.459Z,10.63
2019-01-04T06:17:34.890Z,11.87
2019-01-04T06:20:04.198Z,11.50
2019-01-04T06:22:32.772Z,15.47
2019-01-04T06:28:42.631Z,10.70
2019-01-04T06:31:11.069Z,9.77
2019-01-04T06:33:39.497Z,8.33
2019-01-04T06:36:08.815Z,8.00
2019-01-04T06:38:37.251Z,8.07
2019-01-04T06:41:05.683Z,7.63
2019-01-04T06:43:34.442Z,7.67
2019-01-04T06:46:02.870Z,8.20
2019-01-04T06:48:31.329Z,7.70
2019-01-04T06:50:59.972Z,8.57
2019-01-04T06:53:28.706Z,8.00
2019-01-04T06:55:57.139Z,8.10
2019-01-04T06:58:25.604Z,8.63
2019-01-04T07:00:54.103Z,8.53
2019-01-04T07:03:22.535Z,8.03
2019-01-04T07:09:19.931Z,11.23
2019-01-04T07:11:48.413Z,11.67
2019-01-04T07:17:58.259Z,12.50
2019-01-04T07:20:26.720Z,11.60
2019-01-04T07:22:55.222Z,11.70
2019-01-04T07:25:24.083Z,11.10
2019-01-04T07:27:52.531Z,11.50
2019-01-04T07:30:20.972Z,11.30
2019-01-04T07:32:50.150Z,10.80
2019-01-04T07:35:18.583Z,9.90
2019-01-04T07:37:47.028Z,10.63
2019-01-04T07:40:15.754Z,10.07
2019-01-04T07:46:25.180Z,10.00
2019-01-04T07:48:54.293Z,8.87
2019-01-04T07:51:23.127Z,8.77
2019-01-04T07:53:52.879Z,8.33
2019-01-04T07:56:21.322Z,8.83
2019-01-04T08:01:54.550Z,7.87
2019-01-04T08:04:23.159Z,8.37
2019-01-04T08:06:51.583Z,7.83
2019-01-04T08:09:20.095Z,8.40
2019-01-04T08:15:17.325Z,9.00
2019-01-04T08:17:46.167Z,8.83
2019-01-04T08:20:14.862Z,9.57
2019-01-04T08:22:43.290Z,8.93
2019-01-04T08:25:12.122Z,9.60
2019-01-04T08:27:40.875Z,8.77
2019-01-04T08:30:11.729Z,9.43
2019-01-04T08:32:40.447Z,9.50
2019-01-04T08:35:08.879Z,9.37
2019-01-04T08:37:37.312Z,9.27
2019-01-04T08:40:08.956Z,11.77
2019-01-04T08:42:37.487Z,10.83
2019-01-04T08:45:07.546Z,11.17
2019-01-04T08:51:06.235Z,11.13
2019-01-04T08:57:03.142Z,9.03
2019-01-04T08:59:31.944Z,8.80
2019-01-04T09:05:17.670Z,8.67
2019-01-04T09:07:46.535Z,8.50
2019-01-04T09:10:14.970Z,8.40
2019-01-04T09:12:43.452Z,8.20
2019-01-04T09:15:11.877Z,8.80
2019-01-04T09:17:40.302Z,8.10
2019-01-04T09:20:09.531Z,8.93
2019-01-04T09:26:19.392Z,8.23
2019-01-04T09:28:47.823Z,8.47
2019-01-04T09:31:16.263Z,8.70
2019-01-04T09:33:45.256Z,8.50
2019-01-04T09:36:13.699Z,7.50
2019-01-04T09:38:42.127Z,8.40
2019-01-04T09:41:31.634Z,8.37
2019-01-04T09:44:00.342Z,9.10
2019-01-04T09:46:28.795Z,11.27
2019-01-04T09:48:57.395Z,10.37
2019-01-04T09:51:25.834Z,12.57
2019-01-04T09:53:54.648Z,12.63
2019-01-04T09:56:23.374Z,13.90
2019-01-04T09:58:51.811Z,13.63
2019-01-04T10:01:20.246Z,14.97
2019-01-04T10:03:49.199Z,14.37
2019-01-04T10:06:17.641Z,14.53
2019-01-04T10:12:15.228Z,13.27
2019-01-04T10:14:43.869Z,12.37
2019-01-04T10:17:12.386Z,13.10
2019-01-04T10:23:09.288Z,13.20
2019-01-04T10:29:06.651Z,11.40
2019-01-04T10:31:35.148Z,11.23
2019-01-04T10:37:44.644Z,12.40
2019-01-04T10:40:13.155Z,12.33
2019-01-04T10:42:41.659Z,13.77
2019-01-04T10:45:10.204Z,11.53
2019-01-04T10:47:38.668Z,9.40
2019-01-04T10:50:07.158Z,9.60
2019-01-04T10:52:35.961Z,9.60
2019-01-04T10:58:46.251Z,9.00
2019-01-04T11:01:14.690Z,9.33
2019-01-04T11:07:12.714Z,9.13
2019-01-04T11:13:10.339Z,9.73
2019-01-04T11:15:38.891Z,10.63
2019-01-04T11:21:48.319Z,9.93
2019-01-04T11:24:23.190Z,9.53
2019-01-04T11:30:26.158Z,11.83
2019-01-04T11:32:57.345Z,11.00
2019-01-04T11:35:37.302Z,11.40
2019-01-04T11:38:15.103Z,12.77
2019-01-04T11:44:44.474Z,12.60
2019-01-04T11:51:03.683Z,15.80
2019-01-04T11:53:32.120Z,12.10
2019-01-04T11:56:00.565Z,10.33
2019-01-04T12:01:58.119Z,9.40
2019-01-04T12:04:26.629Z,10.00
2019-01-04T12:10:36.076Z,8.67
2019-01-04T12:13:04.503Z,8.70
2019-01-04T12:15:33.005Z,9.03
2019-01-04T12:18:01.472Z,8.63
2019-01-04T12:24:11.203Z,8.23
2019-01-04T12:26:39.643Z,8.90
2019-01-04T12:29:08.371Z,8.10
2019-01-04T12:31:36.842Z,8.30
2019-01-04T12:34:05.273Z,8.47
2019-01-04T12:36:33.706Z,7.60
2019-01-04T12:39:02.169Z,8.10
2019-01-04T12:41:30.603Z,7.70
2019-01-04T12:43:59.036Z,8.00
2019-01-04T12:46:27.754Z,7.97
2019-01-04T12:48:56.174Z,7.50
2019-01-04T12:54:53.676Z,7.93
2019-01-04T12:57:22.213Z,7.33
2019-01-04T13:03:32.328Z,7.03
2019-01-04T13:09:41.907Z,6.33
2019-01-04T13:12:10.406Z,6.50
2019-01-04T13:14:38.853Z,4.87
2019-01-04T13:17:07.316Z,4.27
2019-01-04T13:23:17.099Z,3.77
2019-01-04T13:25:45.833Z,3.93
2019-01-04T13:31:42.953Z,4.70
2019-01-04T13:37:39.910Z,6.40
2019-01-04T13:43:12.776Z,6.40
2019-01-04T13:45:41.279Z,6.70
2019-01-04T13:48:09.760Z,6.23
2019-01-04T13:50:38.191Z,6.20
2019-01-04T13:53:06.630Z,6.30
2019-01-04T13:55:35.110Z,6.53
2019-01-04T14:01:45.264Z,5.70
2019-01-04T14:04:13.698Z,5.80
2019-01-04T14:06:42.130Z,5.70
2019-01-04T14:12:39.420Z,4.60
2019-01-04T14:18:36.874Z,5.10
2019-01-04T14:24:34.167Z,5.17
2019-01-04T14:30:31.883Z,5.93
2019-01-04T14:36:28.847Z,5.70
2019-01-04T14:42:25.506Z,6.10
2019-01-04T14:44:53.939Z,6.20
2019-01-04T14:47:22.519Z,6.03
2019-01-04T14:53:32.527Z,5.53
2019-01-04T14:56:00.963Z,5.40
2019-01-04T14:58:29.395Z,6.30
2019-01-04T15:00:58.015Z,5.67
2019-01-04T15:07:08.046Z,4.83
2019-01-04T15:13:18.250Z,4.77
2019-01-04T15:19:27.820Z,5.30
2019-01-04T15:21:56.556Z,5.50
2019-01-04T15:27:53.767Z,5.80
2019-01-04T15:30:22.198Z,6.07
2019-01-04T15:36:19.812Z,5.00
2019-01-04T15:42:16.881Z,6.03
2019-01-04T15:44:45.875Z,6.23
2019-01-04T15:50:56.016Z,5.97
2019-01-04T15:53:24.446Z,6.33
2019-01-04T15:55:52.884Z,6.30
2019-01-04T15:58:21.353Z,6.37
2019-01-04T16:00:49.857Z,6.43
2019-01-04T16:03:18.654Z,7.03
2019-01-04T16:09:15.266Z,6.53
2019-01-04T16:15:12.731Z,7.70
2019-01-04T16:17:41.368Z,8.83
2019-01-04T16:20:11.434Z,7.97
2019-01-04T16:22:39.873Z,8.60
2019-01-04T16:28:37.539Z,7.20
2019-01-04T16:31:06.079Z,7.60
2019-01-04T16:37:15.630Z,7.83
2019-01-04T16:39:44.483Z,8.57
2019-01-04T16:42:13.275Z,8.70
2019-01-04T16:44:42.088Z,8.83
2019-01-04T16:47:10.522Z,9.23
2019-01-04T16:49:38.960Z,10.30
2019-01-04T16:55:36.458Z,8.10
2019-01-04T16:58:04.919Z,8.53
2019-01-04T17:00:33.413Z,8.70
2019-01-04T17:03:02.153Z,9.20
2019-01-04T17:08:59.334Z,9.10
2019-01-04T17:11:27.808Z,8.13
2019-01-04T17:17:37.579Z,8.70
2019-01-04T17:20:06.551Z,8.50
2019-01-04T17:26:03.283Z,8.60
2019-01-04T17:28:32.149Z,8.77
2019-01-04T17:34:42.176Z,9.07
2019-01-04T17:40:51.737Z,9.57
2019-01-04T17:43:20.488Z,10.67
2019-01-04T17:45:49.178Z,10.50
2019-01-04T17:48:17.968Z,11.23
2019-01-04T17:50:46.398Z,12.60
2019-01-04T17:56:31.324Z,11.67
2019-01-04T17:58:59.794Z,11.63
2019-01-04T18:01:28.230Z,12.17
2019-01-04T18:03:56.673Z,12.23
2019-01-04T18:06:25.147Z,12.50
2019-01-04T18:08:53.592Z,16.73
2019-01-04T18:11:22.026Z,13.37
2019-01-04T18:13:50.763Z,14.33
2019-01-04T18:16:19.212Z,12.77
2019-01-04T18:18:47.651Z,11.00
2019-01-04T18:21:16.214Z,11.30
2019-01-04T18:23:44.658Z,13.07
2019-01-04T18:26:13.127Z,11.97
2019-01-04T18:28:41.893Z,13.03
2019-01-04T18:34:51.779Z,11.80
2019-01-04T18:41:01.559Z,12.43
2019-01-04T18:43:30.003Z,12.43
2019-01-04T18:45:58.452Z,13.20
2019-01-04T18:48:27.202Z,12.37
2019-01-04T18:54:12.648Z,12.00
2019-01-04T18:56:41.090Z,12.23
2019-01-04T19:00:04.410Z,10.70
2019-01-04T19:06:14.587Z,9.67
2019-01-04T19:12:24.525Z,10.30
2019-01-04T19:18:34.295Z,11.17
2019-01-04T19:24:44.600Z,11.03
2019-01-04T19:31:40.075Z,11.60
2019-01-04T19:37:50.109Z,11.13
2019-01-04T19:40:18.913Z,10.23
2019-01-04T19:42:47.342Z,10.47
2019-01-04T19:48:44.932Z,10.53
2019-01-04T19:51:13.955Z,11.00
2019-01-04T19:53:42.387Z,12.83
2019-01-04T19:56:10.831Z,13.37
2019-01-04T19:58:39.312Z,11.40
2019-01-04T20:01:07.754Z,10.20
2019-01-04T20:03:36.465Z,10.50
2019-01-04T20:06:38.454Z,10.50
2019-01-04T20:09:50.915Z,10.77
2019-01-04T20:16:11.403Z,11.93
2019-01-04T20:22:17.185Z,10.27
2019-01-04T20:28:22.346Z,10.60
2019-01-04T20:34:30.059Z,12.30
2019-01-04T20:40:45.794Z,11.40
2019-01-04T20:43:15.908Z,11.37
2019-01-04T20:45:54.874Z,12.03
2019-01-04T20:52:10.603Z,12.17
2019-01-04T20:54:49.999Z,11.87
2019-01-04T20:57:36.446Z,12.10
2019-01-04T21:03:41.767Z,12.60
2019-01-04T21:06:17.667Z,12.30
2019-01-04T21:09:02.813Z,12.00
2019-01-04T21:14:53.399Z,13.10
2019-01-04T21:20:55.362Z,12.40
2019-01-04T21:23:31.183Z,13.50
2019-01-04T21:26:01.265Z,13.87
2019-01-04T21:28:43.519Z,14.70
2019-01-04T21:34:43.250Z,16.10
2019-01-04T21:37:16.043Z,15.67
2019-01-04T21:39:52.190Z,16.00
2019-01-04T21:46:20.373Z,16.03
2019-01-04T21:52:31.771Z,16.60
2019-01-04T21:55:17.223Z,16.50
2019-01-04T21:57:47.378Z,16.60
2019-01-04T22:00:33.742Z,16.67
2019-01-04T22:03:20.751Z,16.40
2019-01-04T22:06:05.755Z,17.50
2019-01-04T22:08:45.236Z,16.63
2019-01-04T22:11:30.653Z,17.00
2019-01-04T22:17:16.938Z,17.93
2019-01-04T22:20:03.253Z,17.27
2019-01-04T22:22:33.323Z,17.63
2019-01-04T22:25:12.722Z,16.63
2019-01-04T22:31:20.690Z,16.47
2019-01-04T22:34:13.482Z,18.27
2019-01-04T22:36:41.069Z,17.43
2019-01-04T22:39:23.193Z,17.30
2019-01-04T22:41:53.842Z,16.53
2019-01-04T22:48:07.945Z,18.23
2019-01-04T22:50:56.170Z,17.87
2019-01-04T22:53:28.958Z,17.80
2019-01-04T22:55:59.376Z,18.47
2019-01-04T22:58:41.311Z,17.70
2019-01-04T23:01:14.231Z,16.67
2019-01-04T23:03:53.688Z,17.97
2019-01-04T23:06:29.506Z,17.87
2019-01-04T23:09:05.450Z,17.77
2019-01-04T23:15:29.023Z,18.23
2019-01-04T23:21:58.563Z,19.40
2019-01-04T23:24:45.145Z,17.87
2019-01-04T23:27:21.543Z,18.10
2019-01-04T23:30:07.802Z,18.33
2019-01-04T23:32:54.538Z,18.07
2019-01-04T23:39:14.030Z,17.83
2019-01-04T23:41:47.242Z,18.07
2019-01-04T23:44:23.614Z,17.67
2019-01-04T23:50:53.617Z,18.63
2019-01-04T23:53:40.689Z,18.57
2019-01-04T23:56:23.041Z,19.67
2019-01-04T23:58:59.074Z,18.50
